createdAt,value
2018-01-28T00:02:58.494Z,8.30
2018-01-28T00:08:01.962Z,8.07
2018-01-28T00:13:06.181Z,7.60
2018-01-28T00:18:10.308Z,8.23
2018-01-28T00:23:14.747Z,6.93
2018-01-28T00:28:18.440Z,7.53
2018-01-28T00:33:21.491Z,6.27
2018-01-28T00:38:26.075Z,6.40
2018-01-28T00:43:29.179Z,7.63
2018-01-28T00:48:33.063Z,7.73
2018-01-28T00:53:36.782Z,8.85
2018-01-28T00:58:39.887Z,7.40
2018-01-28T01:03:42.966Z,6.40
2018-01-28T01:08:47.184Z,6.70
2018-01-28T01:13:51.610Z,7.03
2018-01-28T01:18:56.194Z,7.67
2018-01-28T01:24:00.622Z,7.00
2018-01-28T01:29:05.034Z,6.43
2018-01-28T01:34:08.889Z,7.05
2018-01-28T01:39:13.318Z,6.97
2018-01-28T01:44:16.543Z,7.73
2018-01-28T01:49:35.313Z,9.13
2018-01-28T01:54:39.725Z,8.43
2018-01-28T01:59:43.471Z,7.37
2018-01-28T02:04:47.689Z,7.53
2018-01-28T02:09:51.527Z,7.77
2018-01-28T02:14:54.599Z,7.20
2018-01-28T02:19:59.673Z,6.80
2018-01-28T02:25:02.759Z,7.00
2018-01-28T02:30:07.342Z,7.43
2018-01-28T02:35:11.770Z,9.23
2018-01-28T02:40:16.718Z,6.83
2018-01-28T02:45:19.858Z,7.00
2018-01-28T02:50:24.368Z,6.03
2018-01-28T02:55:27.908Z,5.77
2018-01-28T03:00:31.447Z,5.60
2018-01-28T03:05:34.550Z,6.07
2018-01-28T03:10:39.887Z,5.50
2018-01-28T03:15:43.743Z,7.93
2018-01-28T03:20:48.940Z,5.20
2018-01-28T03:25:52.030Z,5.30
2018-01-28T03:30:55.976Z,4.43
2018-01-28T03:35:59.492Z,4.03
2018-01-28T03:41:02.573Z,3.53
2018-01-28T03:46:07.319Z,2.90
2018-01-28T03:51:11.984Z,2.63
2018-01-28T03:56:16.410Z,2.00
2018-01-28T04:01:19.916Z,2.40
2018-01-28T04:06:23.031Z,2.40
2018-01-28T04:11:28.036Z,2.30
2018-01-28T04:16:32.475Z,2.60
2018-01-28T04:21:36.736Z,2.00
2018-01-28T04:26:40.943Z,2.53
2018-01-28T04:31:45.438Z,1.40
2018-01-28T04:36:49.303Z,1.70
2018-01-28T04:41:53.514Z,1.20
2018-01-28T04:46:57.200Z,1.53
2018-01-28T04:52:02.536Z,1.17
2018-01-28T04:57:05.628Z,1.10
2018-01-28T05:02:09.815Z,1.10
2018-01-28T05:07:12.900Z,1.13
2018-01-28T05:12:17.104Z,2.00
2018-01-28T05:17:21.723Z,2.53
2018-01-28T05:22:25.572Z,1.50
2018-01-28T05:27:29.436Z,1.57
2018-01-28T05:32:32.550Z,1.40
2018-01-28T05:37:36.403Z,1.40
2018-01-28T05:42:39.877Z,1.70
2018-01-28T05:47:44.724Z,1.30
2018-01-28T05:52:47.804Z,1.57
2018-01-28T05:57:52.110Z,1.40
2018-01-28T06:02:57.977Z,1.20
2018-01-28T06:08:01.568Z,1.20
2018-01-28T06:13:06.035Z,1.10
2018-01-28T06:18:10.640Z,1.10
2018-01-28T06:23:14.595Z,0.90
2018-01-28T06:28:17.757Z,1.47
2018-01-28T06:33:22.228Z,1.17
2018-01-28T06:38:26.079Z,0.80
2018-01-28T06:43:30.519Z,0.90
2018-01-28T06:48:33.599Z,1.20
2018-01-28T06:53:37.091Z,1.10
2018-01-28T06:58:40.600Z,0.90
2018-01-28T07:03:44.443Z,1.00
2018-01-28T07:08:49.278Z,1.00
2018-01-28T07:13:53.729Z,1.27
2018-01-28T07:18:57.555Z,0.90
2018-01-28T07:24:02.225Z,1.00
2018-01-28T07:29:05.699Z,0.80
2018-01-28T07:34:10.152Z,1.70
2018-01-28T07:39:14.594Z,0.90
2018-01-28T07:44:19.032Z,1.10
2018-01-28T07:49:23.464Z,1.03
2018-01-28T07:54:28.719Z,1.03
2018-01-28T07:59:33.158Z,1.10
2018-01-28T08:04:36.248Z,1.25
2018-01-28T08:15:30.112Z,1.50
2018-01-28T08:20:35.580Z,4.10
2018-01-28T08:25:40.021Z,3.13
2018-01-28T08:30:44.496Z,1.77
2018-01-28T08:35:49.096Z,1.87
2018-01-28T08:40:53.543Z,2.23
2018-01-28T08:45:56.629Z,1.83
2018-01-28T08:51:01.072Z,1.97
2018-01-28T08:56:05.284Z,3.40
2018-01-28T09:01:09.719Z,4.37
2018-01-28T09:06:13.576Z,1.87
2018-01-28T09:11:18.161Z,2.85
2018-01-28T09:16:21.652Z,2.40
2018-01-28T09:21:24.781Z,1.37
2018-01-28T09:26:29.160Z,1.40
2018-01-28T09:31:32.638Z,1.30
2018-01-28T09:36:37.076Z,1.63
2018-01-28T09:41:41.689Z,2.57
2018-01-28T09:46:44.787Z,2.33
2018-01-28T09:51:49.232Z,1.30
2018-01-28T09:56:53.665Z,1.20
2018-01-28T10:01:58.112Z,2.10
2018-01-28T10:07:01.585Z,1.10
2018-01-28T10:12:06.024Z,1.10
2018-01-28T10:17:10.472Z,1.23
2018-01-28T10:22:15.066Z,1.12
2018-01-28T10:27:18.922Z,1.33
2018-01-28T10:32:22.782Z,1.10
2018-01-28T10:37:26.294Z,1.17
2018-01-28T10:42:29.741Z,1.63
2018-01-28T10:47:32.835Z,1.17
2018-01-28T10:52:36.309Z,1.50
2018-01-28T10:57:39.921Z,1.33
2018-01-28T11:02:44.145Z,1.30
2018-01-28T11:07:48.732Z,1.73
2018-01-28T11:12:53.175Z,1.60
2018-01-28T11:17:58.552Z,2.13
2018-01-28T11:23:02.988Z,1.70
2018-01-28T11:28:06.836Z,3.40
2018-01-28T11:33:11.065Z,2.00
2018-01-28T11:38:14.153Z,2.97
2018-01-28T11:43:18.060Z,3.23
2018-01-28T11:48:22.505Z,2.00
2018-01-28T11:53:25.988Z,1.70
2018-01-28T11:58:30.598Z,1.67
2018-01-28T12:03:33.696Z,1.60
2018-01-28T12:08:36.777Z,1.90
2018-01-28T12:13:39.863Z,1.70
2018-01-28T12:18:42.943Z,1.60
2018-01-28T12:23:47.431Z,1.73
2018-01-28T12:28:50.870Z,3.00
2018-01-28T12:33:54.388Z,3.23
2018-01-28T12:38:57.481Z,1.90
2018-01-28T12:44:01.341Z,4.55
2018-01-28T12:49:05.933Z,2.23
2018-01-28T12:54:09.027Z,2.27
2018-01-28T12:59:12.136Z,1.90
2018-01-28T13:04:15.230Z,2.57
2018-01-28T13:09:19.090Z,4.97
2018-01-28T13:14:22.568Z,3.63
2018-01-28T13:19:27.004Z,3.67
2018-01-28T13:24:30.483Z,3.83
2018-01-28T13:29:33.571Z,5.13
2018-01-28T13:34:36.663Z,2.90
2018-01-28T13:39:39.747Z,3.00
2018-01-28T13:44:43.605Z,2.70
2018-01-28T13:49:47.465Z,2.93
2018-01-28T13:54:50.579Z,3.47
2018-01-28T13:59:55.188Z,2.30
2018-01-28T14:04:58.670Z,3.23
2018-01-28T14:10:02.520Z,3.20
2018-01-28T14:15:05.608Z,3.27
2018-01-28T14:20:08.700Z,3.55
2018-01-28T14:25:12.575Z,3.97
2018-01-28T14:30:16.059Z,5.33
2018-01-28T14:35:20.279Z,3.97
2018-01-28T14:40:23.759Z,3.93
2018-01-28T14:45:27.623Z,5.83
2018-01-28T14:50:31.468Z,3.57
2018-01-28T14:55:34.572Z,4.00
2018-01-28T15:00:37.689Z,3.70
2018-01-28T15:05:42.148Z,4.20
2018-01-28T15:10:45.639Z,2.70
2018-01-28T15:15:50.082Z,4.27
2018-01-28T15:21:00.164Z,3.53
2018-01-28T15:26:04.634Z,5.33
2018-01-28T15:31:07.733Z,6.80
2018-01-28T15:36:10.851Z,3.20
2018-01-28T15:41:15.288Z,7.30
2018-01-28T15:46:18.768Z,3.20
2018-01-28T15:51:23.203Z,4.18
2018-01-28T15:56:26.318Z,3.17
2018-01-28T16:01:30.768Z,3.83
2018-01-28T16:06:34.824Z,3.80
2018-01-28T16:11:39.284Z,4.35
2018-01-28T16:16:43.727Z,3.67
2018-01-28T16:21:47.970Z,3.10
2018-01-28T16:26:52.386Z,4.47
2018-01-28T16:31:56.818Z,3.33
2018-01-28T16:36:59.897Z,4.93
2018-01-28T16:42:02.987Z,2.60
2018-01-28T16:47:07.440Z,3.27
2018-01-28T16:52:11.859Z,3.73
2018-01-28T16:57:16.115Z,2.63
2018-01-28T17:02:19.968Z,3.63
2018-01-28T17:07:24.196Z,3.73
2018-01-28T17:12:28.970Z,3.10
2018-01-28T17:17:33.608Z,4.20
2018-01-28T17:22:37.100Z,3.13
2018-01-28T17:27:40.964Z,2.23
2018-01-28T17:32:44.831Z,4.30
2018-01-28T17:37:48.681Z,3.97
2018-01-28T17:42:53.131Z,2.40
2018-01-28T17:47:56.232Z,3.73
2018-01-28T17:52:59.315Z,2.60
2018-01-28T17:58:03.155Z,2.50
2018-01-28T18:03:07.581Z,2.40
2018-01-28T18:08:12.164Z,3.73
2018-01-28T18:13:16.392Z,4.30
2018-01-28T18:18:20.992Z,3.23
2018-01-28T18:23:25.239Z,5.33
2018-01-28T18:28:29.464Z,4.13
2018-01-28T18:33:32.772Z,8.90
2018-01-28T18:38:36.632Z,3.43
2018-01-28T18:43:39.719Z,4.57
2018-01-28T18:48:42.807Z,4.70
2018-01-28T18:53:46.655Z,2.90
2018-01-28T18:58:49.758Z,3.30
2018-01-28T19:03:54.352Z,2.70
2018-01-28T19:08:58.806Z,3.40
2018-01-28T19:14:02.676Z,3.60
2018-01-28T19:19:05.762Z,3.83
2018-01-28T19:24:08.928Z,5.20
2018-01-28T19:29:13.530Z,4.40
2018-01-28T19:34:17.748Z,5.60
2018-01-28T19:39:20.839Z,3.50
2018-01-28T19:44:23.950Z,3.15
2018-01-28T19:49:28.387Z,4.15
2018-01-28T19:54:32.596Z,3.13
2018-01-28T19:59:35.687Z,3.73
2018-01-28T20:04:39.912Z,3.43
2018-01-28T20:09:43.763Z,2.60
2018-01-28T20:14:48.210Z,2.87
2018-01-28T20:19:52.442Z,3.30
2018-01-28T20:24:56.874Z,2.30
2018-01-28T20:30:00.728Z,2.50
2018-01-28T20:35:05.167Z,2.20
2018-01-28T20:40:09.765Z,2.03
2018-01-28T20:45:13.988Z,2.40
2018-01-28T20:50:18.442Z,2.80
2018-01-28T20:55:21.924Z,1.90
2018-01-28T21:00:24.999Z,2.10
2018-01-28T21:05:28.079Z,2.30
2018-01-28T21:10:32.679Z,2.30
2018-01-28T21:15:35.770Z,2.10
2018-01-28T21:20:38.843Z,2.17
2018-01-28T21:25:43.275Z,2.10
2018-01-28T21:30:46.743Z,2.10
2018-01-28T21:35:49.819Z,2.37
2018-01-28T21:40:54.039Z,2.50
2018-01-28T21:45:57.514Z,2.37
2018-01-28T21:51:00.991Z,2.43
2018-01-28T21:56:04.067Z,2.30
2018-01-28T22:01:07.916Z,2.05
2018-01-28T22:06:10.995Z,2.10
2018-01-28T22:11:14.484Z,1.93
2018-01-28T22:16:17.957Z,1.80
2018-01-28T22:21:21.039Z,2.17
2018-01-28T22:26:24.167Z,2.03
2018-01-28T22:31:27.257Z,2.10
2018-01-28T22:36:30.738Z,3.10
2018-01-28T22:41:34.575Z,2.37
2018-01-28T22:46:38.432Z,2.37
2018-01-28T22:51:42.287Z,2.07
2018-01-28T22:56:46.135Z,2.45
2018-01-28T23:01:49.217Z,2.33
2018-01-28T23:06:53.075Z,2.20
2018-01-28T23:11:56.173Z,2.57
2018-01-28T23:17:00.396Z,2.00
2018-01-28T23:22:03.483Z,2.07
2018-01-28T23:27:07.351Z,2.27
2018-01-28T23:32:10.432Z,2.25
2018-01-28T23:37:15.036Z,1.93
2018-01-28T23:42:18.519Z,1.80
2018-01-28T23:47:22.383Z,1.73
2018-01-28T23:52:25.522Z,2.27
2018-01-28T23:57:28.671Z,2.27
